Terminal Aerodrome Forecast
Issued by NWS Wilmington, NC

Home | Current Version | Previous Version | Text Only | Print | Product List | Glossary On
Versions: 1 2 3 4 5 6 7 8 9 10 11 12 13 14 15
000
FTUS42 KILM 302336
TAFILM
TAF
KILM 302336Z 3100/3124 14009KT 6SM -RA SCT020 BKN050 OVC070
     FM310200 10004KT P6SM VCSH BKN040 BKN100
     FM310700 05003KT 6SM BR SCT006 BKN025
     FM311300 09007KT P6SM VCTS SCT030CB BKN040
     FM312200 10007KT P6SM VCSH SCT030 BKN050=

USA.gov is the U.S. government's official web portal to all federal, state and local government web resources and services.